sensor_id;sensor_type;location;lat;lon;timestamp;temperature;humidity
2465;DHT22;1244;54.326;10.074;2022-08-01T00:01:45;18.10;99.90
2465;DHT22;1244;54.326;10.074;2022-08-01T00:39:15;18.10;99.90
2465;DHT22;1244;54.326;10.074;2022-08-01T00:41:40;18.10;99.90
2465;DHT22;1244;54.326;10.074;2022-08-01T00:44:06;18.00;99.90
2465;DHT22;1244;54.326;10.074;2022-08-01T00:46:32;18.00;99.90
2465;DHT22;1244;54.326;10.074;2022-08-01T00:48:58;18.00;99.90
2465;DHT22;1244;54.326;10.074;2022-08-01T00:59:47;18.00;99.90
2465;DHT22;1244;54.326;10.074;2022-08-01T01:02:13;18.00;99.90
2465;DHT22;1244;54.326;10.074;2022-08-01T01:04:39;18.00;99.90
2465;DHT22;1244;54.326;10.074;2022-08-01T01:10:00;17.90;99.90
2465;DHT22;1244;54.326;10.074;2022-08-01T01:15:39;17.90;99.90
2465;DHT22;1244;54.326;10.074;2022-08-01T01:18:14;17.90;99.90
2465;DHT22;1244;54.326;10.074;2022-08-01T01:20:58;17.90;99.90
2465;DHT22;1244;54.326;10.074;2022-08-01T01:23:44;17.80;99.90
2465;DHT22;1244;54.326;10.074;2022-08-01T01:39:15;17.90;99.90
2465;DHT22;1244;54.326;10.074;2022-08-01T01:59:44;17.70;99.90
2465;DHT22;1244;54.326;10.074;2022-08-01T02:02:11;17.80;99.90
2465;DHT22;1244;54.326;10.074;2022-08-01T02:07:34;17.80;99.90
2465;DHT22;1244;54.326;10.074;2022-08-01T02:15:04;17.70;99.90
2465;DHT22;1244;54.326;10.074;2022-08-01T02:17:31;17.70;99.90
2465;DHT22;1244;54.326;10.074;2022-08-01T02:19:57;17.80;99.90
2465;DHT22;1244;54.326;10.074;2022-08-01T02:22:31;17.80;99.90
2465;DHT22;1244;54.326;10.074;2022-08-01T02:27:59;17.70;99.90
2465;DHT22;1244;54.326;10.074;2022-08-01T02:42:16;17.60;99.90
2465;DHT22;1244;54.326;10.074;2022-08-01T02:44:44;17.70;99.90
2465;DHT22;1244;54.326;10.074;2022-08-01T02:55:03;17.60;99.90
2465;DHT22;1244;54.326;10.074;2022-08-01T03:00:05;17.60;99.90
2465;DHT22;1244;54.326;10.074;2022-08-01T03:02:32;17.50;99.90
2465;DHT22;1244;54.326;10.074;2022-08-01T03:05:01;17.60;99.90
2465;DHT22;1244;54.326;10.074;2022-08-01T03:07:28;17.50;99.90
2465;DHT22;1244;54.326;10.074;2022-08-01T03:09:56;17.60;99.90
2465;DHT22;1244;54.326;10.074;2022-08-01T03:12:26;17.50;99.90
2465;DHT22;1244;54.326;10.074;2022-08-01T03:14:54;17.50;99.90
2465;DHT22;1244;54.326;10.074;2022-08-01T03:19:58;17.50;99.90
2465;DHT22;1244;54.326;10.074;2022-08-01T03:28:22;17.50;99.90
2465;DHT22;1244;54.326;10.074;2022-08-01T03:47:50;17.50;99.90
2465;DHT22;1244;54.326;10.074;2022-08-01T03:50:20;17.40;99.90
2465;DHT22;1244;54.326;10.074;2022-08-01T03:52:46;17.50;99.90
2465;DHT22;1244;54.326;10.074;2022-08-01T03:57:49;17.50;99.90
2465;DHT22;1244;54.326;10.074;2022-08-01T04:00:15;17.40;99.90
2465;DHT22;1244;54.326;10.074;2022-08-01T04:02:47;17.40;99.90
2465;DHT22;1244;54.326;10.074;2022-08-01T04:05:15;17.40;99.90
2465;DHT22;1244;54.326;10.074;2022-08-01T04:07:46;17.40;99.90
2465;DHT22;1244;54.326;10.074;2022-08-01T04:10:12;17.40;99.90
2465;DHT22;1244;54.326;10.074;2022-08-01T04:15:18;17.40;99.90
2465;DHT22;1244;54.326;10.074;2022-08-01T04:20:21;17.40;99.90
2465;DHT22;1244;54.326;10.074;2022-08-01T04:22:46;17.40;99.90
2465;DHT22;1244;54.326;10.074;2022-08-01T04:25:33;17.50;99.90
2465;DHT22;1244;54.326;10.074;2022-08-01T04:28:01;17.40;99.90
2465;DHT22;1244;54.326;10.074;2022-08-01T04:33:00;17.40;99.90
2465;DHT22;1244;54.326;10.074;2022-08-01T04:35:27;17.40;99.90
2465;DHT22;1244;54.326;10.074;2022-08-01T04:37:56;17.50;99.90
2465;DHT22;1244;54.326;10.074;2022-08-01T04:40:22;17.50;99.90
2465;DHT22;1244;54.326;10.074;2022-08-01T04:42:49;17.40;99.90
2465;DHT22;1244;54.326;10.074;2022-08-01T04:45:15;17.40;99.90
2465;DHT22;1244;54.326;10.074;2022-08-01T04:47:43;17.30;99.90
2465;DHT22;1244;54.326;10.074;2022-08-01T04:50:10;17.30;99.90
2465;DHT22;1244;54.326;10.074;2022-08-01T04:52:37;17.30;99.90
2465;DHT22;1244;54.326;10.074;2022-08-01T04:55:04;17.30;99.90
2465;DHT22;1244;54.326;10.074;2022-08-01T04:57:33;17.40;99.90
2465;DHT22;1244;54.326;10.074;2022-08-01T04:59:59;17.40;99.90
2465;DHT22;1244;54.326;10.074;2022-08-01T05:02:27;17.40;99.90
2465;DHT22;1244;54.326;10.074;2022-08-01T05:04:54;17.50;99.90
2465;DHT22;1244;54.326;10.074;2022-08-01T05:07:20;17.40;99.90
2465;DHT22;1244;54.326;10.074;2022-08-01T05:09:46;17.40;99.90
2465;DHT22;1244;54.326;10.074;2022-08-01T05:12:11;17.50;99.90
2465;DHT22;1244;54.326;10.074;2022-08-01T05:14:37;17.50;99.90
2465;DHT22;1244;54.326;10.074;2022-08-01T05:17:05;17.40;99.90
2465;DHT22;1244;54.326;10.074;2022-08-01T05:19:35;17.40;99.90
2465;DHT22;1244;54.326;10.074;2022-08-01T05:22:03;17.40;99.90
2465;DHT22;1244;54.326;10.074;2022-08-01T05:24:31;17.40;99.90
2465;DHT22;1244;54.326;10.074;2022-08-01T05:26:57;17.50;99.90
2465;DHT22;1244;54.326;10.074;2022-08-01T05:29:24;17.50;99.90
2465;DHT22;1244;54.326;10.074;2022-08-01T05:31:50;17.50;99.90
2465;DHT22;1244;54.326;10.074;2022-08-01T05:34:15;17.50;99.90
2465;DHT22;1244;54.326;10.074;2022-08-01T05:36:41;17.50;99.90
2465;DHT22;1244;54.326;10.074;2022-08-01T05:39:07;17.70;99.90
2465;DHT22;1244;54.326;10.074;2022-08-01T05:41:33;17.60;99.90
2465;DHT22;1244;54.326;10.074;2022-08-01T05:43:59;17.60;99.90
2465;DHT22;1244;54.326;10.074;2022-08-01T05:46:24;17.60;99.90
2465;DHT22;1244;54.326;10.074;2022-08-01T05:51:25;17.60;99.90
2465;DHT22;1244;54.326;10.074;2022-08-01T05:53:52;17.60;99.90
2465;DHT22;1244;54.326;10.074;2022-08-01T05:56:18;17.70;99.90
2465;DHT22;1244;54.326;10.074;2022-08-01T05:58:44;17.70;99.90
2465;DHT22;1244;54.326;10.074;2022-08-01T06:01:09;17.70;99.90
2465;DHT22;1244;54.326;10.074;2022-08-01T06:03:36;17.80;99.90
2465;DHT22;1244;54.326;10.074;2022-08-01T06:06:02;17.80;99.90
2465;DHT22;1244;54.326;10.074;2022-08-01T06:08:29;17.80;99.90
2465;DHT22;1244;54.326;10.074;2022-08-01T06:10:55;17.80;99.90
2465;DHT22;1244;54.326;10.074;2022-08-01T06:13:21;17.80;99.90
2465;DHT22;1244;54.326;10.074;2022-08-01T06:15:46;17.80;99.90
2465;DHT22;1244;54.326;10.074;2022-08-01T06:18:12;17.70;99.90
2465;DHT22;1244;54.326;10.074;2022-08-01T06:20:38;17.80;99.90
2465;DHT22;1244;54.326;10.074;2022-08-01T06:23:04;17.80;99.90
2465;DHT22;1244;54.326;10.074;2022-08-01T06:25:29;17.70;99.90
2465;DHT22;1244;54.326;10.074;2022-08-01T06:27:55;17.70;99.90
2465;DHT22;1244;54.326;10.074;2022-08-01T06:30:20;17.50;99.90
2465;DHT22;1244;54.326;10.074;2022-08-01T06:32:46;17.50;99.90
2465;DHT22;1244;54.326;10.074;2022-08-01T06:35:13;17.50;99.90
2465;DHT22;1244;54.326;10.074;2022-08-01T06:37:38;17.60;99.90
2465;DHT22;1244;54.326;10.074;2022-08-01T06:40:05;17.60;99.90
2465;DHT22;1244;54.326;10.074;2022-08-01T06:42:31;17.60;99.90
2465;DHT22;1244;54.326;10.074;2022-08-01T06:45:04;17.40;99.90
2465;DHT22;1244;54.326;10.074;2022-08-01T06:47:30;17.40;99.90
2465;DHT22;1244;54.326;10.074;2022-08-01T06:49:56;17.40;99.90
2465;DHT22;1244;54.326;10.074;2022-08-01T06:52:21;17.40;99.90
2465;DHT22;1244;54.326;10.074;2022-08-01T06:54:47;17.30;99.90
2465;DHT22;1244;54.326;10.074;2022-08-01T06:57:13;17.30;99.90
2465;DHT22;1244;54.326;10.074;2022-08-01T06:59:38;17.40;99.90
2465;DHT22;1244;54.326;10.074;2022-08-01T07:02:04;17.30;99.90
2465;DHT22;1244;54.326;10.074;2022-08-01T07:04:29;17.30;99.90
2465;DHT22;1244;54.326;10.074;2022-08-01T07:06:56;17.40;99.90
2465;DHT22;1244;54.326;10.074;2022-08-01T07:09:23;17.40;99.90
2465;DHT22;1244;54.326;10.074;2022-08-01T07:11:48;17.50;99.90
2465;DHT22;1244;54.326;10.074;2022-08-01T07:14:15;17.50;99.90
2465;DHT22;1244;54.326;10.074;2022-08-01T07:16:41;17.50;99.90
2465;DHT22;1244;54.326;10.074;2022-08-01T07:19:06;17.50;99.90
2465;DHT22;1244;54.326;10.074;2022-08-01T07:21:33;18.10;99.90
2465;DHT22;1244;54.326;10.074;2022-08-01T07:23:58;18.40;99.90
2465;DHT22;1244;54.326;10.074;2022-08-01T07:26:24;18.10;99.90
2465;DHT22;1244;54.326;10.074;2022-08-01T07:28:50;18.20;99.90
2465;DHT22;1244;54.326;10.074;2022-08-01T07:31:15;17.90;99.90
2465;DHT22;1244;54.326;10.074;2022-08-01T07:33:41;17.90;99.90
2465;DHT22;1244;54.326;10.074;2022-08-01T07:36:06;17.90;99.90
2465;DHT22;1244;54.326;10.074;2022-08-01T07:38:32;17.90;99.90
2465;DHT22;1244;54.326;10.074;2022-08-01T07:40:57;18.10;99.90
2465;DHT22;1244;54.326;10.074;2022-08-01T07:43:23;18.30;99.90
2465;DHT22;1244;54.326;10.074;2022-08-01T07:45:48;18.50;99.90
2465;DHT22;1244;54.326;10.074;2022-08-01T07:48:14;18.30;99.90
2465;DHT22;1244;54.326;10.074;2022-08-01T07:50:39;18.20;99.90
2465;DHT22;1244;54.326;10.074;2022-08-01T07:53:05;18.00;99.90
2465;DHT22;1244;54.326;10.074;2022-08-01T07:55:30;18.10;99.90
2465;DHT22;1244;54.326;10.074;2022-08-01T07:57:56;18.40;99.90
2465;DHT22;1244;54.326;10.074;2022-08-01T08:00:22;18.60;99.90
2465;DHT22;1244;54.326;10.074;2022-08-01T08:02:47;18.80;99.90
2465;DHT22;1244;54.326;10.074;2022-08-01T08:05:13;18.80;99.90
2465;DHT22;1244;54.326;10.074;2022-08-01T08:07:38;19.00;99.90
2465;DHT22;1244;54.326;10.074;2022-08-01T08:10:05;19.10;99.90
2465;DHT22;1244;54.326;10.074;2022-08-01T08:12:31;19.20;99.90
2465;DHT22;1244;54.326;10.074;2022-08-01T08:14:57;19.40;99.90
2465;DHT22;1244;54.326;10.074;2022-08-01T08:17:26;19.60;99.90
2465;DHT22;1244;54.326;10.074;2022-08-01T08:19:52;19.40;99.90
2465;DHT22;1244;54.326;10.074;2022-08-01T08:22:19;19.10;99.90
2465;DHT22;1244;54.326;10.074;2022-08-01T08:24:44;19.30;99.90
2465;DHT22;1244;54.326;10.074;2022-08-01T08:27:10;19.60;99.90
2465;DHT22;1244;54.326;10.074;2022-08-01T08:29:36;19.60;99.90
2465;DHT22;1244;54.326;10.074;2022-08-01T08:32:02;19.90;99.90
2465;DHT22;1244;54.326;10.074;2022-08-01T08:34:28;19.90;99.90
2465;DHT22;1244;54.326;10.074;2022-08-01T08:36:54;19.60;99.90
2465;DHT22;1244;54.326;10.074;2022-08-01T08:39:21;19.40;99.90
2465;DHT22;1244;54.326;10.074;2022-08-01T08:41:48;19.70;99.90
2465;DHT22;1244;54.326;10.074;2022-08-01T08:44:14;20.00;99.90
2465;DHT22;1244;54.326;10.074;2022-08-01T08:46:44;20.20;99.90
2465;DHT22;1244;54.326;10.074;2022-08-01T08:49:11;19.80;99.90
2465;DHT22;1244;54.326;10.074;2022-08-01T08:51:41;19.40;99.90
2465;DHT22;1244;54.326;10.074;2022-08-01T08:54:10;19.90;99.90
2465;DHT22;1244;54.326;10.074;2022-08-01T08:56:37;19.70;99.90
2465;DHT22;1244;54.326;10.074;2022-08-01T08:59:03;19.60;99.90
2465;DHT22;1244;54.326;10.074;2022-08-01T09:01:33;19.70;99.90
2465;DHT22;1244;54.326;10.074;2022-08-01T09:04:01;19.90;99.90
2465;DHT22;1244;54.326;10.074;2022-08-01T09:06:27;20.40;99.90
2465;DHT22;1244;54.326;10.074;2022-08-01T09:08:54;20.00;99.90
2465;DHT22;1244;54.326;10.074;2022-08-01T09:11:19;20.40;99.90
2465;DHT22;1244;54.326;10.074;2022-08-01T09:14:15;20.30;99.90
2465;DHT22;1244;54.326;10.074;2022-08-01T09:16:58;20.90;99.90
2465;DHT22;1244;54.326;10.074;2022-08-01T09:19:25;21.00;99.90
2465;DHT22;1244;54.326;10.074;2022-08-01T09:22:01;20.70;99.90
2465;DHT22;1244;54.326;10.074;2022-08-01T09:24:29;21.10;99.90
2465;DHT22;1244;54.326;10.074;2022-08-01T09:26:55;21.30;99.90
2465;DHT22;1244;54.326;10.074;2022-08-01T09:29:30;21.40;99.90
2465;DHT22;1244;54.326;10.074;2022-08-01T09:31:58;21.80;99.90
2465;DHT22;1244;54.326;10.074;2022-08-01T09:34:30;22.10;99.90
2465;DHT22;1244;54.326;10.074;2022-08-01T09:36:58;22.20;99.90
2465;DHT22;1244;54.326;10.074;2022-08-01T09:41:56;22.00;99.90
2465;DHT22;1244;54.326;10.074;2022-08-01T09:44:42;22.20;99.90
2465;DHT22;1244;54.326;10.074;2022-08-01T09:47:08;22.00;99.90
2465;DHT22;1244;54.326;10.074;2022-08-01T09:49:35;22.20;99.90
2465;DHT22;1244;54.326;10.074;2022-08-01T09:52:15;22.60;99.90
2465;DHT22;1244;54.326;10.074;2022-08-01T09:54:42;22.90;99.90
2465;DHT22;1244;54.326;10.074;2022-08-01T09:57:15;23.30;99.90
2465;DHT22;1244;54.326;10.074;2022-08-01T09:59:44;23.30;99.90
2465;DHT22;1244;54.326;10.074;2022-08-01T10:02:11;23.00;99.90
2465;DHT22;1244;54.326;10.074;2022-08-01T10:04:46;22.90;99.90
2465;DHT22;1244;54.326;10.074;2022-08-01T10:07:12;22.60;99.90
2465;DHT22;1244;54.326;10.074;2022-08-01T10:09:41;22.90;99.90
2465;DHT22;1244;54.326;10.074;2022-08-01T10:12:08;23.20;99.90
2465;DHT22;1244;54.326;10.074;2022-08-01T10:14:36;23.20;99.90
2465;DHT22;1244;54.326;10.074;2022-08-01T10:17:02;23.10;99.90
2465;DHT22;1244;54.326;10.074;2022-08-01T10:19:29;23.30;99.90
2465;DHT22;1244;54.326;10.074;2022-08-01T10:21:56;23.30;99.90
2465;DHT22;1244;54.326;10.074;2022-08-01T10:24:23;22.70;99.90
2465;DHT22;1244;54.326;10.074;2022-08-01T10:27:07;23.50;99.90
2465;DHT22;1244;54.326;10.074;2022-08-01T10:32:06;23.10;99.90
2465;DHT22;1244;54.326;10.074;2022-08-01T10:34:34;24.10;99.90
2465;DHT22;1244;54.326;10.074;2022-08-01T10:37:01;24.20;99.90
2465;DHT22;1244;54.326;10.074;2022-08-01T10:39:26;24.00;99.90
2465;DHT22;1244;54.326;10.074;2022-08-01T10:41:55;24.30;99.90
2465;DHT22;1244;54.326;10.074;2022-08-01T10:44:23;24.70;99.90
2465;DHT22;1244;54.326;10.074;2022-08-01T10:46:52;24.30;99.90
2465;DHT22;1244;54.326;10.074;2022-08-01T10:49:22;23.70;99.90
2465;DHT22;1244;54.326;10.074;2022-08-01T10:51:49;24.50;99.90
2465;DHT22;1244;54.326;10.074;2022-08-01T10:54:14;25.10;99.90
2465;DHT22;1244;54.326;10.074;2022-08-01T10:56:48;25.00;99.90
2465;DHT22;1244;54.326;10.074;2022-08-01T10:59:21;25.20;99.90
2465;DHT22;1244;54.326;10.074;2022-08-01T11:01:58;25.80;99.90
2465;DHT22;1244;54.326;10.074;2022-08-01T11:04:54;26.30;99.90
2465;DHT22;1244;54.326;10.074;2022-08-01T11:07:32;26.30;99.90
2465;DHT22;1244;54.326;10.074;2022-08-01T11:10:12;25.90;99.90
2465;DHT22;1244;54.326;10.074;2022-08-01T11:12:40;26.00;99.90
2465;DHT22;1244;54.326;10.074;2022-08-01T11:17:36;24.90;99.90
2465;DHT22;1244;54.326;10.074;2022-08-01T11:20:06;24.80;99.90
2465;DHT22;1244;54.326;10.074;2022-08-01T11:22:32;24.70;99.90
2465;DHT22;1244;54.326;10.074;2022-08-01T11:25:18;24.80;99.90
2465;DHT22;1244;54.326;10.074;2022-08-01T11:27:43;24.40;99.90
2465;DHT22;1244;54.326;10.074;2022-08-01T11:32:55;25.70;99.90
2465;DHT22;1244;54.326;10.074;2022-08-01T11:35:24;26.40;99.90
2465;DHT22;1244;54.326;10.074;2022-08-01T11:37:52;26.10;99.90
2465;DHT22;1244;54.326;10.074;2022-08-01T11:40:28;26.30;99.90
2465;DHT22;1244;54.326;10.074;2022-08-01T11:46:07;26.90;99.90
2465;DHT22;1244;54.326;10.074;2022-08-01T11:48:32;26.10;99.90
2465;DHT22;1244;54.326;10.074;2022-08-01T11:50:58;26.20;99.90
2465;DHT22;1244;54.326;10.074;2022-08-01T11:53:23;26.50;99.90
2465;DHT22;1244;54.326;10.074;2022-08-01T11:55:51;26.80;99.90
2465;DHT22;1244;54.326;10.074;2022-08-01T11:58:25;27.70;99.90
2465;DHT22;1244;54.326;10.074;2022-08-01T12:00:56;28.30;99.90
2465;DHT22;1244;54.326;10.074;2022-08-01T12:05:55;28.20;99.90
2465;DHT22;1244;54.326;10.074;2022-08-01T12:08:25;28.60;99.90
2465;DHT22;1244;54.326;10.074;2022-08-01T12:10:51;28.40;99.90
2465;DHT22;1244;54.326;10.074;2022-08-01T12:13:17;27.40;99.90
2465;DHT22;1244;54.326;10.074;2022-08-01T12:15:43;27.20;99.90
2465;DHT22;1244;54.326;10.074;2022-08-01T12:18:09;27.00;99.90
2465;DHT22;1244;54.326;10.074;2022-08-01T12:20:37;27.80;99.90
2465;DHT22;1244;54.326;10.074;2022-08-01T12:23:08;27.40;99.90
2465;DHT22;1244;54.326;10.074;2022-08-01T12:25:36;27.40;99.90
2465;DHT22;1244;54.326;10.074;2022-08-01T12:28:04;27.70;99.90
2465;DHT22;1244;54.326;10.074;2022-08-01T12:30:31;27.00;99.90
2465;DHT22;1244;54.326;10.074;2022-08-01T12:33:01;27.90;99.90
2465;DHT22;1244;54.326;10.074;2022-08-01T12:35:29;27.60;99.90
2465;DHT22;1244;54.326;10.074;2022-08-01T12:38:00;28.10;99.90
2465;DHT22;1244;54.326;10.074;2022-08-01T12:40:35;28.10;99.90
2465;DHT22;1244;54.326;10.074;2022-08-01T12:43:06;28.30;99.90
2465;DHT22;1244;54.326;10.074;2022-08-01T12:45:40;28.20;99.90
2465;DHT22;1244;54.326;10.074;2022-08-01T12:48:11;28.30;99.90
2465;DHT22;1244;54.326;10.074;2022-08-01T12:50:39;27.60;99.90
2465;DHT22;1244;54.326;10.074;2022-08-01T12:53:05;28.00;99.90
2465;DHT22;1244;54.326;10.074;2022-08-01T12:55:31;27.50;99.90
2465;DHT22;1244;54.326;10.074;2022-08-01T12:58:08;27.50;99.90
2465;DHT22;1244;54.326;10.074;2022-08-01T13:00:34;27.70;99.90
2465;DHT22;1244;54.326;10.074;2022-08-01T13:03:11;27.10;99.90
2465;DHT22;1244;54.326;10.074;2022-08-01T13:08:22;26.80;99.90
2465;DHT22;1244;54.326;10.074;2022-08-01T13:10:48;27.00;99.90
2465;DHT22;1244;54.326;10.074;2022-08-01T13:13:15;27.50;99.90
2465;DHT22;1244;54.326;10.074;2022-08-01T13:15:43;27.80;99.90
2465;DHT22;1244;54.326;10.074;2022-08-01T13:18:28;27.20;99.80
2465;DHT22;1244;54.326;10.074;2022-08-01T13:21:29;27.60;99.90
2465;DHT22;1244;54.326;10.074;2022-08-01T13:24:09;27.70;99.90
2465;DHT22;1244;54.326;10.074;2022-08-01T13:26:49;27.90;99.90
2465;DHT22;1244;54.326;10.074;2022-08-01T13:29:17;27.50;99.90
2465;DHT22;1244;54.326;10.074;2022-08-01T13:31:44;27.50;99.90
2465;DHT22;1244;54.326;10.074;2022-08-01T13:34:10;27.20;99.90
2465;DHT22;1244;54.326;10.074;2022-08-01T13:36:37;26.90;99.90
2465;DHT22;1244;54.326;10.074;2022-08-01T13:39:03;26.80;99.10
2465;DHT22;1244;54.326;10.074;2022-08-01T13:41:48;26.40;99.90
2465;DHT22;1244;54.326;10.074;2022-08-01T13:44:14;26.20;99.90
2465;DHT22;1244;54.326;10.074;2022-08-01T13:46:40;26.20;99.90
2465;DHT22;1244;54.326;10.074;2022-08-01T13:49:08;26.30;99.90
2465;DHT22;1244;54.326;10.074;2022-08-01T13:51:34;26.40;99.90
2465;DHT22;1244;54.326;10.074;2022-08-01T13:54:00;26.70;99.90
2465;DHT22;1244;54.326;10.074;2022-08-01T13:56:26;26.70;99.90
2465;DHT22;1244;54.326;10.074;2022-08-01T13:58:53;26.50;99.90
2465;DHT22;1244;54.326;10.074;2022-08-01T14:01:19;26.80;99.90
2465;DHT22;1244;54.326;10.074;2022-08-01T14:03:45;26.60;99.90
2465;DHT22;1244;54.326;10.074;2022-08-01T14:06:11;26.10;99.90
2465;DHT22;1244;54.326;10.074;2022-08-01T14:08:37;25.70;99.90
2465;DHT22;1244;54.326;10.074;2022-08-01T14:11:02;26.50;99.90
2465;DHT22;1244;54.326;10.074;2022-08-01T14:13:28;25.70;99.90
2465;DHT22;1244;54.326;10.074;2022-08-01T14:15:55;25.40;99.90
2465;DHT22;1244;54.326;10.074;2022-08-01T14:18:21;25.60;99.90
2465;DHT22;1244;54.326;10.074;2022-08-01T14:20:46;25.40;99.90
2465;DHT22;1244;54.326;10.074;2022-08-01T14:23:12;25.60;99.90
2465;DHT22;1244;54.326;10.074;2022-08-01T14:25:39;26.20;99.90
2465;DHT22;1244;54.326;10.074;2022-08-01T14:28:05;26.60;99.90
2465;DHT22;1244;54.326;10.074;2022-08-01T14:30:31;26.60;99.90
2465;DHT22;1244;54.326;10.074;2022-08-01T14:32:57;26.00;99.90
2465;DHT22;1244;54.326;10.074;2022-08-01T14:35:23;25.70;99.90
2465;DHT22;1244;54.326;10.074;2022-08-01T14:37:48;26.00;99.90
2465;DHT22;1244;54.326;10.074;2022-08-01T14:40:14;26.20;99.90
2465;DHT22;1244;54.326;10.074;2022-08-01T14:42:39;26.00;99.90
2465;DHT22;1244;54.326;10.074;2022-08-01T14:45:06;26.30;99.90
2465;DHT22;1244;54.326;10.074;2022-08-01T14:47:38;26.20;99.90
2465;DHT22;1244;54.326;10.074;2022-08-01T14:50:05;26.00;99.90
2465;DHT22;1244;54.326;10.074;2022-08-01T14:52:33;25.90;99.90
2465;DHT22;1244;54.326;10.074;2022-08-01T14:54:58;25.60;99.90
2465;DHT22;1244;54.326;10.074;2022-08-01T14:57:24;25.10;99.90
2465;DHT22;1244;54.326;10.074;2022-08-01T14:59:50;25.20;99.90
2465;DHT22;1244;54.326;10.074;2022-08-01T15:02:16;25.00;99.90
2465;DHT22;1244;54.326;10.074;2022-08-01T15:04:43;24.70;99.90
2465;DHT22;1244;54.326;10.074;2022-08-01T15:07:09;24.70;99.90
2465;DHT22;1244;54.326;10.074;2022-08-01T15:09:36;24.40;99.90
2465;DHT22;1244;54.326;10.074;2022-08-01T15:12:01;24.60;99.90
2465;DHT22;1244;54.326;10.074;2022-08-01T15:14:30;24.80;99.90
2465;DHT22;1244;54.326;10.074;2022-08-01T15:17:15;24.80;99.90
2465;DHT22;1244;54.326;10.074;2022-08-01T15:19:40;24.80;99.90
2465;DHT22;1244;54.326;10.074;2022-08-01T15:22:06;24.90;99.90
2465;DHT22;1244;54.326;10.074;2022-08-01T15:24:31;24.70;99.90
2465;DHT22;1244;54.326;10.074;2022-08-01T15:26:57;23.90;99.90
2465;DHT22;1244;54.326;10.074;2022-08-01T15:29:23;24.10;99.90
2465;DHT22;1244;54.326;10.074;2022-08-01T15:31:48;23.70;99.90
2465;DHT22;1244;54.326;10.074;2022-08-01T15:34:14;23.50;99.90
2465;DHT22;1244;54.326;10.074;2022-08-01T15:36:40;23.30;99.90
2465;DHT22;1244;54.326;10.074;2022-08-01T15:39:08;23.20;99.90
2465;DHT22;1244;54.326;10.074;2022-08-01T15:41:33;23.60;99.90
2465;DHT22;1244;54.326;10.074;2022-08-01T15:43:59;23.50;99.90
2465;DHT22;1244;54.326;10.074;2022-08-01T15:46:26;23.50;99.90
2465;DHT22;1244;54.326;10.074;2022-08-01T15:48:51;23.20;99.90
2465;DHT22;1244;54.326;10.074;2022-08-01T15:51:17;22.70;99.90
2465;DHT22;1244;54.326;10.074;2022-08-01T15:53:42;23.00;99.90
2465;DHT22;1244;54.326;10.074;2022-08-01T15:56:09;23.00;99.90
2465;DHT22;1244;54.326;10.074;2022-08-01T15:58:35;22.70;99.90
2465;DHT22;1244;54.326;10.074;2022-08-01T16:01:00;22.00;99.90
2465;DHT22;1244;54.326;10.074;2022-08-01T16:03:26;22.00;99.90
2465;DHT22;1244;54.326;10.074;2022-08-01T16:05:53;22.30;99.90
2465;DHT22;1244;54.326;10.074;2022-08-01T16:08:18;22.20;99.90
2465;DHT22;1244;54.326;10.074;2022-08-01T16:10:44;22.10;99.90
2465;DHT22;1244;54.326;10.074;2022-08-01T16:13:10;22.10;99.90
2465;DHT22;1244;54.326;10.074;2022-08-01T16:15:37;22.20;99.90
2465;DHT22;1244;54.326;10.074;2022-08-01T16:18:05;21.90;99.90
2465;DHT22;1244;54.326;10.074;2022-08-01T16:20:31;21.80;99.90
2465;DHT22;1244;54.326;10.074;2022-08-01T16:22:56;21.60;99.90
2465;DHT22;1244;54.326;10.074;2022-08-01T16:25:22;21.70;99.90
2465;DHT22;1244;54.326;10.074;2022-08-01T16:27:47;21.80;99.90
2465;DHT22;1244;54.326;10.074;2022-08-01T16:30:13;21.80;99.90
2465;DHT22;1244;54.326;10.074;2022-08-01T16:32:38;21.50;99.90
2465;DHT22;1244;54.326;10.074;2022-08-01T16:35:04;21.40;99.90
2465;DHT22;1244;54.326;10.074;2022-08-01T16:37:31;21.40;99.90
2465;DHT22;1244;54.326;10.074;2022-08-01T16:39:57;21.00;99.90
2465;DHT22;1244;54.326;10.074;2022-08-01T16:42:22;21.20;99.90
2465;DHT22;1244;54.326;10.074;2022-08-01T16:44:48;21.20;99.90
2465;DHT22;1244;54.326;10.074;2022-08-01T16:47:14;21.30;99.90
2465;DHT22;1244;54.326;10.074;2022-08-01T16:49:39;21.40;99.90
2465;DHT22;1244;54.326;10.074;2022-08-01T16:52:05;21.30;99.90
2465;DHT22;1244;54.326;10.074;2022-08-01T16:54:31;21.20;99.90
2465;DHT22;1244;54.326;10.074;2022-08-01T16:56:57;20.90;99.90
2465;DHT22;1244;54.326;10.074;2022-08-01T16:59:25;21.10;99.90
2465;DHT22;1244;54.326;10.074;2022-08-01T17:01:50;21.10;99.90
2465;DHT22;1244;54.326;10.074;2022-08-01T17:04:16;21.00;99.90
2465;DHT22;1244;54.326;10.074;2022-08-01T17:06:41;21.00;99.90
2465;DHT22;1244;54.326;10.074;2022-08-01T17:09:07;20.70;99.90
2465;DHT22;1244;54.326;10.074;2022-08-01T17:11:33;20.50;99.90
2465;DHT22;1244;54.326;10.074;2022-08-01T17:13:59;20.60;99.90
2465;DHT22;1244;54.326;10.074;2022-08-01T17:16:24;20.70;99.90
2465;DHT22;1244;54.326;10.074;2022-08-01T17:18:50;20.60;99.90
2465;DHT22;1244;54.326;10.074;2022-08-01T17:21:16;20.40;99.90
2465;DHT22;1244;54.326;10.074;2022-08-01T17:23:42;20.40;99.90
2465;DHT22;1244;54.326;10.074;2022-08-01T17:26:07;20.40;99.90
2465;DHT22;1244;54.326;10.074;2022-08-01T17:28:33;20.50;99.90
2465;DHT22;1244;54.326;10.074;2022-08-01T17:30:59;20.40;99.90
2465;DHT22;1244;54.326;10.074;2022-08-01T17:33:24;20.30;99.90
2465;DHT22;1244;54.326;10.074;2022-08-01T17:35:50;20.20;99.90
2465;DHT22;1244;54.326;10.074;2022-08-01T17:38:15;20.10;99.90
2465;DHT22;1244;54.326;10.074;2022-08-01T17:40:41;20.00;99.90
2465;DHT22;1244;54.326;10.074;2022-08-01T17:43:07;20.00;99.90
2465;DHT22;1244;54.326;10.074;2022-08-01T17:45:33;20.10;99.90
2465;DHT22;1244;54.326;10.074;2022-08-01T17:48:00;19.90;99.90
2465;DHT22;1244;54.326;10.074;2022-08-01T17:50:25;19.90;99.90
2465;DHT22;1244;54.326;10.074;2022-08-01T17:52:51;19.70;99.90
2465;DHT22;1244;54.326;10.074;2022-08-01T17:55:17;19.80;99.90
2465;DHT22;1244;54.326;10.074;2022-08-01T17:57:42;19.80;99.90
2465;DHT22;1244;54.326;10.074;2022-08-01T18:00:09;19.80;99.90
2465;DHT22;1244;54.326;10.074;2022-08-01T18:02:37;19.80;99.90
2465;DHT22;1244;54.326;10.074;2022-08-01T18:05:02;19.60;99.90
2465;DHT22;1244;54.326;10.074;2022-08-01T18:07:29;19.60;99.90
2465;DHT22;1244;54.326;10.074;2022-08-01T18:09:54;19.50;99.90
2465;DHT22;1244;54.326;10.074;2022-08-01T18:12:20;19.50;99.90
2465;DHT22;1244;54.326;10.074;2022-08-01T18:14:45;19.40;99.90
2465;DHT22;1244;54.326;10.074;2022-08-01T18:17:12;19.40;99.90
2465;DHT22;1244;54.326;10.074;2022-08-01T18:19:38;19.20;99.90
2465;DHT22;1244;54.326;10.074;2022-08-01T18:22:04;19.20;99.90
2465;DHT22;1244;54.326;10.074;2022-08-01T18:24:29;19.20;99.90
2465;DHT22;1244;54.326;10.074;2022-08-01T18:26:55;19.20;99.90
2465;DHT22;1244;54.326;10.074;2022-08-01T18:29:23;19.10;99.90
2465;DHT22;1244;54.326;10.074;2022-08-01T18:31:48;19.00;99.90
2465;DHT22;1244;54.326;10.074;2022-08-01T18:34:15;18.90;99.90
2465;DHT22;1244;54.326;10.074;2022-08-01T18:36:41;18.90;99.90
2465;DHT22;1244;54.326;10.074;2022-08-01T18:39:07;18.80;99.90